Terminal Aerodrome Forecast
Issued by NWS Sioux Falls, SD

Home | Current Version | Previous Version | Graphics & Text | Print | Product List | Glossary Off
Versions: 1 2 3 4 5 6 7 8 9 10 11 12 13 14

000
FTUS43 KFSD 201122
TAFFSD
TAF
KFSD 201122Z 2012/2112 01004KT P6SM BKN200
     FM210000 04004KT P6SM BKN110
     FM210900 03007KT P6SM BKN090=

USA.gov is the U.S. government's official web portal to all federal, state and local government web resources and services.